SCAR METAR and TAF weather

Enter ICAO airport designator
Station Type Date Time Source
SCAR METAR 2019/06/18 15:00 UTC NOAA

SCAR 181500Z 22005KT 220V360 9999 OVC020 17/11 Q1015


Station Type Date Time Source
SCAR Decoded METAR 2019/06/18 15:00 UTC NOAA

Arica, Chile (SCAR) 18-20S 070-20W 58M
Jun 18, 2019 - 11:00 AM EDT / 2019.06.18 1500 UTC
Wind: from the SW (220 degrees) at 6 MPH (5 KT) (direction variable):0
Visibility: greater than 7 mile(s):0
Sky conditions: overcast
Temperature: 62 F (17 C)
Dew Point: 51 F (11 C)
Relative Humidity: 67%
Pressure (altimeter): 29.97 in. Hg (1015 hPa)
ob: SCAR 181500Z 22005KT 220V360 9999 OVC020 17/11 Q1015
cycle: 15

Station Type Date Time Source
SCAR TAF 2019/06/18 12:06 UTC NOAA

TAF SCAR 181003Z 1812/1912 07004KT 9999 OVC020 TX19/1818Z TN16/1908Z
BECMG 1814/1816 23007KT BKN025
BECMG 1816/1818 18012KT SCT030
BECMG 1900/1902 21007KT BKN020
BECMG 1904/1906 34004KT OVC020

Example: see airport list